Waterbury, VT (05676)

11:13 PM EDT on August 04, 2015 (GMT -0400)
Bolton Valley | | Change Station
CLOSE
Current Station
Personal Weather Station
Location: Bolton, VT
Elevation: 2100 ft
Nearby Weather Stations

Elev 2100 ft 44.42 °N, 72.85 °W | Updated 4 minutes ago

Partly Cloudy
Partly Cloudy
56.9 °F
Feels Like 56.9 °F
N
0.0
Wind Variable Wind from SE
Gusts 1.0 mph

Today
High -- | Low -- °F
--% Chance of Precip.
Yesterday
High -- | Low -- °F
Precip. -- in
5:41 AM 8:12 PM
Waning Gibbous, 72% visible
Pressure 29.92 in
Visibility 10.0 miles
Clouds Few 7500 ft
Dew Point 54 °F
Humidity 91%
Rainfall 0.11 in
Snow Depth Not available.
UV 0 out of 12
Pollen 4.90 out of 12
Air Quality Not available.
Flu Activity Not available.
METAR KMPV 050251Z AUTO 19004KT 10SM FEW075 16/14 A2993 RMK AO2 SLP131 T01560144 51010

More Conditions Fewer Conditions

Pressure 29.92 in
Visibility 10.0 miles
Clouds Few 7500 ft
Dew Point 54 °F
Humidity 91%
Rainfall 0.11 in
Snow Depth Not available.
UV 0 out of 12
Pollen 4.90 out of 12
Air Quality Not available.
Flu Activity Not available.
METAR KMPV 050251Z AUTO 19004KT 10SM FEW075 16/14 A2993 RMK AO2 SLP131 T01560144 51010

More Conditions Fewer Conditions

10-Day Weather Forecast

×

Almanac

Astronomy

Aug. 04, 2015 Rise Set
Actual Time
Civil Twilight
Nautical Twilight
Astronomical Twilight
Moon
Length of Visible Light
Length of Day
Tomorrow will be .
, % of the Moon is Illuminated

Today's Extremes

State Highs State Lows

Community

WunderPhotos

Upload Photos

1,844,085 photos uploaded!

WunderBlogs® & News

Nearby

Air Quality

  Air Quality AQ Index Pollutant
Not available.

Snow Depth

Station Depth Elevation

Earthquake Activity

City Distance Mag. Time & Date
Minimum magnitude displayed is 2.5.

Coastal Water Temperatures

Place Temperature

Stations

Nearby Weather Stations

Station Location Temp. Windchill Dew Point Humidity Wind Precip. Elev Updated Type